• Join FlightAware (Why Join?)
  • Login
  • US Flag 
12:37AM EST


 

Airport Tracker/Info


-or-


 

Live Flight TrackerFlight Track Log ✈ CTL21 ✈ 02-May-2013 ✈ KGRR - KAZO

Flight Track Log - Related Links

Times and Time Zones

All times are in EDT time to prevent confusion due to time zone crossing. See the CTL21 flight status page for this flight to view local times or setup timezone preferences in your user account.

Time Position Orientation Groundspeed Altitude Reporting Facility
EDT Latitude Longitude Course Direction KTS MPH feet Rate Location/Type
04:44PM 42.6900 -85.5067 179° South 152 175 3,000  Level Chicago Center
04:45PM 42.6461 -85.5333 182° South  Level Estimated
04:45PM 42.6481 -85.5083 180° South 150 173 3,000  Level Chicago Center
04:46PM 42.6069 -85.5333 180° South  Level FlightAware Approximate
04:46PM 42.6207 -85.5185 187° South  Level FlightAware Approximate
04:46PM 42.5981 -85.5133 184° South 150 173 3,000  Level Chicago Center
04:47PM 42.5678 -85.5333 180° South  Level FlightAware Approximate
04:47PM 42.5561 -85.5147 181° South 150 173 3,000  Level Chicago Center
04:48PM 42.5287 -85.5355 180° South  Level Estimated
04:48PM 42.5258 -85.5561 225° Southwest 162 186 3,000  Level Chicago Center
04:49PM 42.4895 -85.5350 179° South  Level FlightAware Approximate
04:49PM 42.4992 -85.6025 232° Southwest 157 181 3,000  Level Chicago Center
04:50PM 42.4725 -85.6481 232° Southwest 156 180 3,000  Level Chicago Center
04:51PM 42.4283 -85.6497 182° South 159 183 3,000 -60 Level Chicago Center
04:52PM 42.3772 -85.6528 183° South 155 178 2,900  Descending Chicago Center
04:53PM 42.4731 -85.5333 180° South  Level FlightAware Approximate
04:53PM 42.3578 -85.6806 227° Southwest 167 192 3,000  Level Chicago Center
04:54PM 42.3681 -85.6397 71° East 170 196 2,900 -300 Descending Chicago Center
04:55PM 42.3367 -85.5983 136° Southeast 159 183 2,500 -300 Descending Chicago Center
04:56PM 42.2967 -85.5661 149° Southeast 166 191 2,300 -540 Descending Chicago Center
04:57PM 42.2533 -85.5489 164° South 152 175 1,400 -900 Descending Chicago Center
04:59PM 42.2333 -85.5500 180° South  Level FlightAware Approximate